Dades meteomassalio
Diari Summary for Juliol 19, 2017 Units:  Metric    English   Both
« Previous Day
Next Day »
Diari Semanal Mensual Anual Personalitzat
  Maxima: Minima: Mijana:
Temperatura: -17.8 °C -6.2 °C -2.7 °C
Rosada: -17.8 °C -11.2 °C -8.4 °C
Humitat: Humidity % 28 % 55 %
Velocitat del vent: 0 km/h 0 km/h 16.6 km/h
Racha vent: 0 km/h - -
Vent:- - ESE
Pressio: 0 hPa 34120.7 hPa -
Pluja: 0 mm    
Historical Graphs
 
 
Tabular Data for Juliol 19, 2017
Time Temperature Dew Point Pressure Wind Wind Speed Wind Gust Humidity Rainfall Rate (Hourly) solar Conditions
-17.8 °C -17.8 °C 0 hPa Calm     Humidity % 0 mm SolarRadiationWatts/m^2 W/m2 Conditions
00:05 -4.1 °C -7.6 °C 34293.4 hPa SE 29.8 km/h 29.8 km/h 68 % 0 mm 0.0 W/m2 CLR
00:10 -4.2 °C -7.7 °C 34303.6 hPa SE 29.8 km/h 29.8 km/h 68 % 0 mm 0.0 W/m2 CLR
00:15 -4.1 °C -7.6 °C 34303.6 hPa SSE 23.8 km/h 23.8 km/h 68 % 0 mm 0.0 W/m2 CLR
00:20 -4.1 °C -7.6 °C 34303.6 hPa SSE 26.9 km/h 26.9 km/h 68 % 0 mm 0.0 W/m2 CLR
00:25 -4.1 °C -7.8 °C 34313.7 hPa South 25.9 km/h 25.9 km/h 66 % 0 mm 0.0 W/m2 CLR
00:30 -4 °C -7.8 °C 34313.7 hPa South 17.9 km/h 17.9 km/h 66 % 0 mm 0.0 W/m2 CLR
00:35 -4 °C -7.7 °C 34313.7 hPa Calm     66 % 0 mm 0.0 W/m2 CLR
00:40 -4 °C -7.9 °C 34313.7 hPa Calm     65 % 0 mm 0.0 W/m2 CLR
00:45 -4 °C -7.9 °C 34313.7 hPa Calm     65 % 0 mm 0.0 W/m2 CLR
00:50 -4 °C -7.7 °C 34313.7 hPa Calm     66 % 0 mm 0.0 W/m2 CLR
00:55 -4.1 °C -7.7 °C 34313.7 hPa Calm     67 % 0 mm 0.0 W/m2 CLR
01:00 -4.1 °C -7.6 °C 34313.7 hPa Calm     68 % 0 mm 0.0 W/m2 CLR
01:05 -4.2 °C -7.6 °C 34313.7 hPa Calm     69 % 0 mm 0.0 W/m2 CLR
01:10 -4.3 °C -7.4 °C 34303.6 hPa ENE 7.7 km/h 7.7 km/h 71 % 0 mm 0.0 W/m2 CLR
01:15 -4.3 °C -7.3 °C 34293.4 hPa ENE 11.9 km/h 11.9 km/h 72 % 0 mm 0.0 W/m2 CLR
01:20 -4.4 °C -7.3 °C 34303.6 hPa Calm     73 % 0 mm 0.0 W/m2 CLR
01:25 -4.4 °C -7.3 °C 34293.4 hPa Calm     73 % 0 mm 0.0 W/m2 CLR
01:26 -4.4 °C -7.3 °C 34293.4 hPa Calm     73 % 0 mm 0.0 W/m2 CLR
01:31 -4.4 °C -7.3 °C 34303.6 hPa Calm     73 % 0 mm 0.0 W/m2 CLR
01:36 -4.4 °C -7.3 °C 34303.6 hPa Calm     73 % 0 mm 0.0 W/m2 CLR
01:41 -4.4 °C -7.4 °C 34293.4 hPa SE 17.9 km/h 17.9 km/h 72 % 0 mm 0.0 W/m2 CLR
01:46 -4.4 °C -7.4 °C 34303.6 hPa SE 11.9 km/h 11.9 km/h 72 % 0 mm 0.0 W/m2 CLR
01:51 -4.4 °C -7.4 °C 34303.6 hPa Calm     72 % 0 mm 0.0 W/m2 CLR
01:56 -4.4 °C -7.4 °C 34293.4 hPa Calm     72 % 0 mm 0.0 W/m2 CLR
02:01 -4.4 °C -7.4 °C 34293.4 hPa Calm     72 % 0 mm 0.0 W/m2 CLR
02:06 -4.4 °C -7.6 °C 34293.4 hPa Calm     71 % 0 mm 0.0 W/m2 CLR
02:11 -4.6 °C -7.5 °C 34293.4 hPa Calm     72 % 0 mm 0.0 W/m2 CLR
02:16 -4.6 °C -7.6 °C 34303.6 hPa Calm     72 % 0 mm 0.0 W/m2 CLR
02:21 -4.6 °C -7.6 °C 34293.4 hPa Calm     72 % 0 mm 0.0 W/m2 CLR
02:26 -4.6 °C -7.6 °C 34293.4 hPa Calm     72 % 0 mm 0.0 W/m2 CLR
02:27 -4.6 °C -7.6 °C 34293.4 hPa Calm     72 % 0 mm 0.0 W/m2 CLR
02:32 -4.6 °C -7.6 °C 34293.4 hPa Calm     72 % 0 mm 0.0 W/m2 CLR
02:37 -4.6 °C -7.7 °C 34293.4 hPa Calm     71 % 0 mm 0.0 W/m2 CLR
02:42 -4.6 °C -7.7 °C 34293.4 hPa Calm     71 % 0 mm 0.0 W/m2 CLR
02:47 -4.8 °C -7.6 °C 34279.9 hPa Calm     73 % 0 mm 0.0 W/m2 CLR
02:52 -4.9 °C -7.7 °C 34279.9 hPa Calm     73 % 0 mm 0.0 W/m2 CLR
02:57 -4.9 °C -7.7 °C 34279.9 hPa Calm     74 % 0 mm 0.0 W/m2 CLR
03:02 -4.9 °C -7.7 °C 34279.9 hPa Calm     74 % 0 mm 0.0 W/m2 CLR
03:07 -5.1 °C -7.6 °C 34279.9 hPa Calm     75 % 0 mm 0.0 W/m2 CLR
03:12 -5.1 °C -7.6 °C 34269.7 hPa Calm     76 % 0 mm 0.0 W/m2 CLR
03:17 -5.2 °C -7.6 °C 34269.7 hPa Calm     77 % 0 mm 0.0 W/m2 CLR
03:22 -5.2 °C -7.6 °C 34269.7 hPa Calm     77 % 0 mm 0.0 W/m2 CLR
03:27 -5.2 °C -7.6 °C 34269.7 hPa Calm     77 % 0 mm 0.0 W/m2 CLR
03:32 -5.2 °C -7.6 °C 34269.7 hPa Calm     77 % 0 mm 0.0 W/m2 CLR
03:37 -5.2 °C -7.6 °C 34269.7 hPa Calm     77 % 0 mm 0.0 W/m2 CLR
03:42 -5.3 °C -7.8 °C 34269.7 hPa Calm     76 % 0 mm 0.0 W/m2 CLR
03:47 -5.3 °C -7.9 °C 34256.2 hPa Calm     75 % 0 mm 0.0 W/m2 CLR
03:52 -5.2 °C -7.8 °C 34256.2 hPa Calm     75 % 0 mm 0.0 W/m2 CLR
03:57 -5.3 °C -7.9 °C 34256.2 hPa Calm     75 % 0 mm 0.0 W/m2 CLR
04:02 -5.4 °C -8.1 °C 34256.2 hPa Calm     74 % 0 mm 0.0 W/m2 CLR
04:07 -5.5 °C -8.1 °C 34256.2 hPa Calm     75 % 0 mm 0.0 W/m2 CLR
04:12 -5.6 °C -8.1 °C 34256.2 hPa Calm     75 % 0 mm 0.0 W/m2 CLR
04:17 -5.7 °C -8.2 °C 34256.2 hPa Calm     75 % 0 mm 0.0 W/m2 CLR
04:22 -5.7 °C -8.2 °C 34256.2 hPa Calm     76 % 0 mm 0.0 W/m2 CLR
04:27 -5.8 °C -8.2 °C 34246 hPa Calm     76 % 0 mm 0.0 W/m2 CLR
04:32 -5.9 °C -8.3 °C 34246 hPa Calm     76 % 0 mm 0.0 W/m2 CLR
04:37 -6 °C -8.4 °C 34246 hPa Calm     76 % 0 mm 0.0 W/m2 CLR
04:42 -6 °C -8.3 °C 34256.2 hPa Calm     77 % 0 mm 0.0 W/m2 CLR
04:47 -6.1 °C -8.4 °C 34256.2 hPa Calm     77 % 0 mm 0.0 W/m2 CLR
04:52 -6.1 °C -8.4 °C 34256.2 hPa Calm     77 % 0 mm 0.0 W/m2 CLR
04:57 -6 °C -8.7 °C 34269.7 hPa Calm     74 % 0 mm 0.0 W/m2 CLR
05:02 -5.9 °C -8.7 °C 34269.7 hPa Calm     73 % 0 mm 0.0 W/m2 CLR
05:07 -5.8 °C -8.6 °C 34269.7 hPa Calm     73 % 0 mm 0.0 W/m2 CLR
05:12 -5.8 °C -8.4 °C 34269.7 hPa Calm     74 % 0 mm 0.0 W/m2 CLR
05:13 -5.8 °C -8.4 °C 34269.7 hPa Calm     74 % 0 mm 0.0 W/m2 CLR
05:18 -5.9 °C -8.6 °C 34269.7 hPa Calm     74 % 0 mm 0.0 W/m2 CLR
05:23 -5.9 °C -8.5 °C 34293.4 hPa Calm     75 % 0 mm 0.0 W/m2 CLR
05:28 -6.1 °C -8.5 °C 34293.4 hPa Calm     76 % 0 mm 0.0 W/m2 CLR
05:33 -6.1 °C -8.7 °C 34293.4 hPa Calm     75 % 0 mm 0.0 W/m2 CLR
05:38 -6.1 °C -8.5 °C 34293.4 hPa Calm     76 % 0 mm 0.0 W/m2 CLR
05:43 -6.1 °C -8.7 °C 34293.4 hPa Calm     75 % 0 mm 0.0 W/m2 CLR
05:48 -6.1 °C -8.9 °C 34293.4 hPa ENE 6 km/h 6 km/h 73 % 0 mm 0.0 W/m2 CLR
05:53 -6 °C -9 °C 34279.9 hPa Calm     71 % 0 mm 0.0 W/m2 CLR
05:58 -6.1 °C -8.9 °C 34269.7 hPa NNE 9 km/h 9 km/h 72 % 0 mm 0.0 W/m2 CLR
06:03 -6.2 °C -9.2 °C 34269.7 hPa NNE 20.9 km/h 20.9 km/h 71 % 0 mm 0.0 W/m2 CLR
06:08 -6.2 °C -10.2 °C 34279.9 hPa North 23.8 km/h 23.8 km/h 63 % 0 mm 0.0 W/m2 CLR
06:13 -5.8 °C -10.1 °C 34279.9 hPa Calm     61 % 0 mm 0.0 W/m2 CLR
06:18 -5.6 °C -10.4 °C 34279.9 hPa Calm     58 % 0 mm 0.0 W/m2 CLR
06:23 -5.6 °C -9.8 °C 34279.9 hPa Calm     62 % 0 mm 0.0 W/m2 CLR
06:28 -5.7 °C -10.2 °C 34293.4 hPa Calm     60 % 0 mm 0.0 W/m2 CLR
06:33 -5.7 °C -10.2 °C 34279.9 hPa Calm     60 % 0 mm 0.0 W/m2 OVC
06:38 -5.7 °C -11.1 °C 34279.9 hPa Calm     54 % 0 mm 0.0 W/m2 OVC
06:43 -5.6 °C -10.8 °C 34269.7 hPa Calm     55 % 0 mm 0.0 W/m2 OVC
06:48 -5.5 °C -10.3 °C 34279.9 hPa Calm     58 % 0 mm 0.0 W/m2 OVC
06:53 -5.6 °C -9.8 °C 34279.9 hPa Calm     62 % 0 mm 0.0 W/m2 OVC
06:58 -5.7 °C -9.8 °C 34279.9 hPa Calm     63 % 0 mm 0.0 W/m2 OVC
07:03 -5.7 °C -10.4 °C 34256.2 hPa East 9 km/h 9 km/h 59 % 0 mm 0.0 W/m2 OVC
07:08 -5.6 °C -9.9 °C 34256.2 hPa Calm     61 % 0 mm 5.0 W/m2 OVC
07:14 -5.5 °C -10.3 °C 34256.2 hPa Calm     58 % 0 mm 11.0 W/m2 BKN
07:19 -5.3 °C -10.4 °C 34269.7 hPa Calm   1.6 km/h 56 % 0 mm 18.0 W/m2 BKN
07:24 -4.9 °C -10.2 °C 34269.7 hPa South 17.9 km/h 17.9 km/h 55 % 0 mm 32.0 W/m2 BKN
07:29 -4.6 °C -10.1 °C 34269.7 hPa SSE 9 km/h   54 % 0 mm 40.0 W/m2 BKN
07:34 -4.5 °C -9.9 °C 34269.7 hPa ESE 9 km/h 9 km/h 54 % 0 mm 35.0 W/m2 BKN
07:39 -4.4 °C -9.9 °C 34269.7 hPa Calm     54 % 0 mm 35.0 W/m2 BKN
07:44 -4.4 °C -9.9 °C 34269.7 hPa SSE 12.9 km/h 12.9 km/h 54 % 0 mm 33.0 W/m2 BKN
07:49 -4.3 °C -9.9 °C 34269.7 hPa SE 29.8 km/h 29.8 km/h 53 % 0 mm 26.0 W/m2 BKN
07:54 -4.1 °C -9.9 °C 34269.7 hPa SSE 29.8 km/h 29.8 km/h 52 % 0 mm 23.0 W/m2 BKN
07:59 -4.1 °C -9.9 °C 34269.7 hPa SSE 20.9 km/h 20.9 km/h 52 % 0 mm 21.0 W/m2 BKN
08:04 -4.1 °C -10.1 °C 34269.7 hPa SSE 20.8 km/h 20.8 km/h 51 % 0 mm 21.0 W/m2 BKN
08:09 -4 °C -10.1 °C 34269.7 hPa SSE 29.8 km/h 29.8 km/h 51 % 0 mm 21.0 W/m2 BKN
08:14 -4 °C -10.2 °C 34269.7 hPa NNE 12.9 km/h 12.9 km/h 50 % 0 mm 25.0 W/m2 BKN
08:19 -4.1 °C -9.8 °C 34279.9 hPa North 20.9 km/h 20.9 km/h 53 % 0 mm 28.0 W/m2 BKN
08:24 -4.2 °C -9.8 °C 34293.4 hPa North 11.9 km/h 11.9 km/h 53 % 0 mm 40.0 W/m2 BKN
08:29 -4.1 °C -9.8 °C 34279.9 hPa Calm     53 % 0 mm 54.0 W/m2 BKN
08:34 -4.1 °C -9.3 °C 34279.9 hPa NNE 18.2 km/h 18.2 km/h 56 % 0 mm 79.0 W/m2 SCT
08:39 -4.2 °C -8.4 °C 34269.7 hPa ENE 23.8 km/h 23.8 km/h 63 % 0 mm 100.0 W/m2 FEW
08:44 -4.3 °C -8.2 °C 34269.7 hPa ENE 15 km/h 15 km/h 65 % 0 mm 135.0 W/m2 CLR
08:49 -4.3 °C -8.2 °C 34269.7 hPa Calm     65 % 0 mm 149.0 W/m2 CLR
08:54 -4.3 °C -8 °C 34269.7 hPa Calm     66 % 0 mm 213.0 W/m2 CLR
08:59 -4.2 °C -7.9 °C 34269.7 hPa Calm     66 % 0 mm 148.0 W/m2 CLR
09:04 -4.1 °C -8 °C 34269.7 hPa Calm     65 % 0 mm 156.0 W/m2 CLR
09:09 -4.1 °C -8.1 °C 34269.7 hPa SE 3.1 km/h 3.1 km/h 64 % 0 mm 130.0 W/m2 CLR
09:14 -4 °C -8.2 °C 34269.7 hPa SE 18.2 km/h 18.2 km/h 63 % 0 mm 120.0 W/m2 CLR
09:19 -3.9 °C -8.1 °C 34269.7 hPa SSE 18.2 km/h 18.2 km/h 63 % 0 mm 165.0 W/m2 CLR
09:24 -3.8 °C -8.1 °C 34256.2 hPa ESE 17.9 km/h 17.9 km/h 63 % 0 mm 193.0 W/m2 CLR
09:29 -3.8 °C -7.9 °C 34246 hPa ESE 29.8 km/h 29.8 km/h 63 % 0 mm 374.0 W/m2 CLR
09:34 -3.7 °C -8 °C 34246 hPa SE 29.8 km/h 29.8 km/h 62 % 0 mm 200.0 W/m2 CLR
09:39 -3.6 °C -8 °C 34256.2 hPa SSE 17.9 km/h 17.9 km/h 61 % 0 mm 230.0 W/m2 CLR
09:44 -3.4 °C -7.9 °C 34256.2 hPa ESE 26.9 km/h 26.9 km/h 61 % 0 mm 473.0 W/m2 CLR
09:49 -3.3 °C -7.6 °C 34256.2 hPa SSE 20.9 km/h 20.9 km/h 63 % 0 mm 336.0 W/m2 CLR
09:54 -3.4 °C -7.6 °C 34256.2 hPa East 23.8 km/h 23.8 km/h 63 % 0 mm 290.0 W/m2 CLR
09:59 -3.3 °C -7.7 °C 34256.2 hPa Calm     62 % 0 mm 264.0 W/m2 CLR
10:04 -3.2 °C -7.7 °C 34256.2 hPa Calm     61 % 0 mm 290.0 W/m2 CLR
10:09 -3 °C -7.8 °C 34256.2 hPa SE 12.9 km/h 12.9 km/h 59 % 0 mm 427.0 W/m2 CLR
10:14 -2.7 °C -8.2 °C 34256.2 hPa SSE 29.8 km/h 29.8 km/h 55 % 0 mm 503.0 W/m2 CLR
10:19 -2.6 °C -8.2 °C 34246 hPa SE 29.8 km/h 29.8 km/h 54 % 0 mm 575.0 W/m2 CLR
10:24 -2.4 °C -8.3 °C 34246 hPa SSE 35.7 km/h 35.7 km/h 53 % 0 mm 443.0 W/m2 CLR
10:29 -2.4 °C -8.2 °C 34246 hPa South 29.8 km/h 29.8 km/h 53 % 0 mm 499.0 W/m2 CLR
10:34 -2.3 °C -7.9 °C 34246 hPa SE 20.9 km/h 20.9 km/h 54 % 0 mm 570.0 W/m2 CLR
10:39 -2.2 °C -8 °C 34246 hPa ESE 15.6 km/h 15.6 km/h 53 % 0 mm 640.0 W/m2 CLR
10:44 -2 °C -7.8 °C 34246 hPa East 7.7 km/h 7.7 km/h 53 % 0 mm 664.0 W/m2 CLR
10:49 -1.8 °C -8 °C 34246 hPa ESE 9 km/h 9 km/h 51 % 0 mm 663.0 W/m2 CLR
10:54 -1.6 °C -8.4 °C 34246 hPa SE 20.9 km/h 20.9 km/h 48 % 0 mm 701.0 W/m2 CLR
10:59 -1.4 °C -8.3 °C 34246 hPa South 9 km/h   47 % 0 mm 668.0 W/m2 CLR
11:04 -1.2 °C -8.4 °C 34246 hPa SE 9 km/h 9 km/h 46 % 0 mm 570.0 W/m2 CLR
11:09 -1.1 °C -8.4 °C 34246 hPa SE 12.9 km/h 12.9 km/h 45 % 0 mm 573.0 W/m2 CLR
11:14 -1 °C -8.7 °C 34246 hPa Calm     43 % 0 mm 724.0 W/m2 CLR
11:19 -0.9 °C -8.8 °C 34235.8 hPa SSE 9 km/h 9 km/h 42 % 0 mm 547.0 W/m2 CLR
11:24 -0.8 °C -8.6 °C 34235.8 hPa ENE 9 km/h 9 km/h 43 % 0 mm 573.0 W/m2 CLR
11:29 -0.6 °C -8.6 °C 34235.8 hPa ENE 7.7 km/h 7.7 km/h 42 % 0 mm 645.0 W/m2 CLR
11:34 -0.4 °C -8.9 °C 34235.8 hPa ENE 9 km/h 9 km/h 40 % 0 mm 715.0 W/m2 CLR
11:39 -0.4 °C -8 °C 34235.8 hPa NE 11.9 km/h 17.4 km/h 44 % 0 mm 524.0 W/m2 CLR
11:44 -0.4 °C -8.3 °C 34235.8 hPa NE 23.8 km/h 23.8 km/h 43 % 0 mm 450.0 W/m2 CLR
11:49 -0.6 °C -8.2 °C 34235.8 hPa ENE 23.8 km/h 23.8 km/h 44 % 0 mm 452.0 W/m2 CLR
11:54 -0.7 °C -8.1 °C 34235.8 hPa NE 23.3 km/h 23.3 km/h 45 % 0 mm 457.0 W/m2 CLR
12:05 -0.7 °C -8.1 °C 34235.8 hPa NE 20.9 km/h 20.9 km/h 45 % 0 mm 506.0 W/m2 CLR
12:09 -0.6 °C -7.8 °C 34235.8 hPa NE 17.9 km/h 17.9 km/h 46 % 0 mm 594.0 W/m2 CLR
12:15 -0.6 °C -7.6 °C 34235.8 hPa NE 26.9 km/h 26.9 km/h 47 % 0 mm 561.0 W/m2 CLR
12:20 -0.7 °C -7.9 °C 34235.8 hPa NE 23.8 km/h 23.8 km/h 46 % 0 mm 499.0 W/m2 CLR
12:25 -0.6 °C -8.6 °C 34222.3 hPa ESE 26.9 km/h 26.9 km/h 42 % 0 mm 912.0 W/m2 CLR
12:30 -0.2 °C -8.3 °C 34222.3 hPa ESE 33.6 km/h 33.6 km/h 42 % 0 mm 555.0 W/m2 CLR
12:35 -0.4 °C -8 °C 34222.3 hPa ENE 38.8 km/h 38.8 km/h 44 % 0 mm 939.0 W/m2 CLR
12:40 -0.5 °C -8.1 °C 34222.3 hPa East 35.7 km/h 35.7 km/h 44 % 0 mm 496.0 W/m2 CLR
12:45 -0.3 °C -8.1 °C 34222.3 hPa ESE 44.7 km/h 44.7 km/h 43 % 0 mm 534.0 W/m2 CLR
12:50 -0.2 °C -8.5 °C 34222.3 hPa ESE 38.8 km/h 38.8 km/h 41 % 0 mm 735.0 W/m2 CLR
12:55 -0.1 °C -8.2 °C 34222.3 hPa East 35.7 km/h 35.7 km/h 42 % 0 mm 965.0 W/m2 CLR
13:00 -0.1 °C -8.8 °C 34222.3 hPa ESE 17.9 km/h 17.9 km/h 39 % 0 mm 798.0 W/m2 CLR
13:05 0.2 °C -11.1 °C 34222.3 hPa SSE 47.6 km/h 47.6 km/h 29 % 0 mm 960.0 W/m2 CLR
13:10 0.4 °C -11.2 °C 34222.3 hPa SSE 38.8 km/h 38.8 km/h 28 % 0 mm 912.0 W/m2 CLR
13:15 0.6 °C -11.1 °C 34222.3 hPa SSE 56.6 km/h 56.6 km/h 28 % 0 mm 905.0 W/m2 CLR
13:20 0.4 °C -10.9 °C 34222.3 hPa SSW 38.8 km/h 38.8 km/h 29 % 0 mm 904.0 W/m2 CLR
13:25 0.3 °C -10.7 °C 34222.3 hPa SSE 49.2 km/h 49.2 km/h 30 % 0 mm 900.0 W/m2 CLR
13:30 0.2 °C -10.8 °C 34235.8 hPa SE 29.8 km/h 29.8 km/h 30 % 0 mm 905.0 W/m2 CLR
13:35 0.4 °C -10.7 °C 34222.3 hPa SSE 35.7 km/h 35.7 km/h 30 % 0 mm 905.0 W/m2 CLR
13:36 0.4 °C -10.7 °C 34222.3 hPa South 29.8 km/h 29.8 km/h 30 % 0 mm 909.0 W/m2 CLR
13:41 0.4 °C -10.6 °C 34222.3 hPa SSW 38.8 km/h 38.8 km/h 30 % 0 mm 900.0 W/m2 CLR
13:46 0.3 °C -9.1 °C 34222.3 hPa SSE 41.7 km/h 41.7 km/h 36 % 0 mm 909.0 W/m2 CLR
13:51 0.3 °C -10.4 °C 34222.3 hPa SE 35.7 km/h 35.7 km/h 31 % 0 mm 911.0 W/m2 CLR
13:56 0.4 °C -8.6 °C 34222.3 hPa South 35.7 km/h 35.7 km/h 38 % 0 mm 914.0 W/m2 CLR
14:01 0.4 °C -8.5 °C 34212.1 hPa South 38.8 km/h 38.8 km/h 38 % 0 mm 925.0 W/m2 CLR
14:06 0.4 °C -8.4 °C 34212.1 hPa SSE 46.7 km/h 46.7 km/h 39 % 0 mm 932.0 W/m2 CLR
14:11 0.1 °C -7.7 °C 34198.6 hPa SE 38.8 km/h 38.8 km/h 43 % 0 mm 905.0 W/m2 CLR
14:16 0.1 °C -7.6 °C 34212.1 hPa ESE 47.6 km/h 47.6 km/h 44 % 0 mm 867.0 W/m2 CLR
14:21 0.2 °C -7.7 °C 34212.1 hPa ESE 38.8 km/h 38.8 km/h 43 % 0 mm 928.0 W/m2 CLR
14:26 -0.1 °C -7.6 °C 34198.6 hPa ESE 38.8 km/h 38.8 km/h 45 % 0 mm 942.0 W/m2 CLR
14:31 -0.1 °C -7.5 °C 34198.6 hPa ESE 38.8 km/h 38.8 km/h 45 % 0 mm 935.0 W/m2 CLR
14:36 0.2 °C -7.7 °C 34198.6 hPa East 29.8 km/h 29.8 km/h 43 % 0 mm 946.0 W/m2 CLR
14:41 0.4 °C -7.3 °C 34198.6 hPa ESE 32.8 km/h 32.8 km/h 44 % 0 mm 925.0 W/m2 CLR
14:42 0.4 °C -7.3 °C 34198.6 hPa East 32.8 km/h 32.8 km/h 44 % 0 mm 923.0 W/m2 CLR
14:47 0.6 °C -8.9 °C 34198.6 hPa South 33.6 km/h 33.6 km/h 36 % 0 mm 918.0 W/m2 CLR
14:52 0.6 °C -8.2 °C 34198.6 hPa ESE 25.9 km/h 25.9 km/h 39 % 0 mm 937.0 W/m2 CLR
14:57 0.5 °C -8.5 °C 34188.4 hPa SSE 44.7 km/h 44.7 km/h 38 % 0 mm 933.0 W/m2 CLR
15:02 0.5 °C -8 °C 34188.4 hPa SSE 44.7 km/h 44.7 km/h 40 % 0 mm 912.0 W/m2 CLR
15:07 0.3 °C -8.2 °C 34188.4 hPa South 33.6 km/h 33.6 km/h 40 % 0 mm 921.0 W/m2 CLR
15:12 0.2 °C -9 °C 34188.4 hPa South 41.7 km/h 41.7 km/h 37 % 0 mm 919.0 W/m2 CLR
15:17 0.4 °C -9.1 °C 34178.3 hPa South 47.6 km/h 47.6 km/h 36 % 0 mm 925.0 W/m2 CLR
15:22 0.4 °C -8.4 °C 34188.4 hPa SSE 29.8 km/h 29.8 km/h 39 % 0 mm 960.0 W/m2 CLR
15:27 0.3 °C -8.4 °C 34188.4 hPa SE 44.7 km/h 44.7 km/h 39 % 0 mm 896.0 W/m2 CLR
15:32 0.4 °C -8.4 °C 34188.4 hPa South 35.7 km/h 35.7 km/h 39 % 0 mm 984.0 W/m2 CLR
15:37 0.3 °C -8.4 °C 34178.3 hPa SE 31.1 km/h 31.1 km/h 39 % 0 mm 1000.0 W/m2 CLR
15:42 0.4 °C -8.4 °C 34178.3 hPa SE 50.7 km/h 50.7 km/h 39 % 0 mm 974.0 W/m2 CLR
15:47 0.4 °C -8.4 °C 34178.3 hPa SE 38.8 km/h 38.8 km/h 39 % 0 mm 974.0 W/m2 CLR
15:52 0.2 °C -8.6 °C 34178.3 hPa SE 44.7 km/h 44.7 km/h 39 % 0 mm 243.0 W/m2 CLR
15:57 0.1 °C -8.4 °C 34164.7 hPa SE 41.7 km/h 41.7 km/h 40 % 0 mm 250.0 W/m2 CLR
16:02 0.1 °C -8.4 °C 34164.7 hPa SE 26.9 km/h 26.9 km/h 40 % 0 mm 229.0 W/m2 CLR
16:07 0.1 °C -8.6 °C 34164.7 hPa SE 41.4 km/h 41.4 km/h 39 % 0 mm 353.0 W/m2 CLR
16:12 0.2 °C -8.6 °C 34164.7 hPa SE 41.7 km/h 41.7 km/h 39 % 0 mm 381.0 W/m2 CLR
16:17 0.3 °C -8.4 °C 34164.7 hPa SE 20.9 km/h 20.9 km/h 39 % 0 mm 712.0 W/m2 CLR
16:22 0.3 °C -8.4 °C 34164.7 hPa ESE 20.9 km/h 20.9 km/h 39 % 0 mm 422.0 W/m2 CLR
16:27 0.4 °C -8.6 °C 34164.7 hPa SSE 29.8 km/h 29.8 km/h 38 % 0 mm 422.0 W/m2 CLR
16:32 0.5 °C -8.7 °C 34164.7 hPa SE 38.8 km/h 38.8 km/h 37 % 0 mm 422.0 W/m2 CLR
16:37 0.2 °C -8.7 °C 34154.6 hPa SE 33.6 km/h 33.6 km/h 38 % 0 mm 315.0 W/m2 CLR
16:38 0.2 °C -8.8 °C 34154.6 hPa SE 32.8 km/h 32.8 km/h 38 % 0 mm 306.0 W/m2 CLR
16:43 0.2 °C -8.8 °C 34154.6 hPa SE 29.8 km/h 29.8 km/h 38 % 0 mm 388.0 W/m2 CLR
16:48 0.1 °C -8.8 °C 34154.6 hPa SE 41.7 km/h 41.7 km/h 38 % 0 mm 387.0 W/m2 CLR
16:53 -0.1 °C -9 °C 34154.6 hPa SE 32.8 km/h 32.8 km/h 38 % 0 mm 376.0 W/m2 CLR
16:58 -0.1 °C -9 °C 34154.6 hPa SSE 47.6 km/h 47.6 km/h 38 % 0 mm 373.0 W/m2 CLR
17:03 0.1 °C -8.4 °C 34154.6 hPa SE 32.8 km/h 32.8 km/h 40 % 0 mm 788.0 W/m2 CLR
17:08 -0.1 °C -8.5 °C 34154.6 hPa ESE 32.8 km/h 32.8 km/h 40 % 0 mm 381.0 W/m2 CLR
17:13 -0.2 °C -8.4 °C 34154.6 hPa SE 29.8 km/h 29.8 km/h 41 % 0 mm 434.0 W/m2 CLR
17:18 -0.2 °C -8.4 °C 34154.6 hPa SSE 28.5 km/h 28.5 km/h 41 % 0 mm 796.0 W/m2 CLR
17:23 -0.1 °C -8.4 °C 34144.4 hPa ESE 29.8 km/h 29.8 km/h 41 % 0 mm 362.0 W/m2 CLR
17:28 0 °C -8.7 °C 34144.4 hPa ESE 32.8 km/h 32.8 km/h 39 % 0 mm 830.0 W/m2 CLR
17:33 0.1 °C -8.7 °C 34144.4 hPa ESE 32.8 km/h 32.8 km/h 39 % 0 mm 824.0 W/m2 CLR
17:38 0.1 °C -8.6 °C 34144.4 hPa ESE 41.7 km/h 41.7 km/h 39 % 0 mm 663.0 W/m2 CLR
17:43 -0.1 °C -8.1 °C 34144.4 hPa East 29.8 km/h 29.8 km/h 42 % 0 mm 144.0 W/m2 CLR
17:48 -0.3 °C -7.9 °C 34144.4 hPa ESE 32.8 km/h 32.8 km/h 44 % 0 mm 162.0 W/m2 CLR
17:53 -0.4 °C -8.1 °C 34144.4 hPa ESE 32.8 km/h 32.8 km/h 44 % 0 mm 192.0 W/m2 CLR
17:58 -0.6 °C -7.9 °C 34144.4 hPa East 23.8 km/h 23.8 km/h 45 % 0 mm 202.0 W/m2 CLR
18:03 -0.6 °C -8 °C 34144.4 hPa ESE 23.3 km/h 23.3 km/h 45 % 0 mm 216.0 W/m2 CLR
18:08 -0.7 °C -8.1 °C 34144.4 hPa ESE 26.9 km/h 26.9 km/h 45 % 0 mm 211.0 W/m2 CLR
18:13 -0.7 °C -7.9 °C 34144.4 hPa East 23.8 km/h 23.8 km/h 46 % 0 mm 220.0 W/m2 CLR
18:18 -0.8 °C -7.9 °C 34144.4 hPa East 9 km/h 9 km/h 46 % 0 mm 503.0 W/m2 CLR
18:19 -0.7 °C -7.9 °C 34144.4 hPa ESE 20.9 km/h 20.9 km/h 46 % 0 mm 394.0 W/m2 CLR
18:24 -0.8 °C -7.8 °C 34144.4 hPa ESE 20.9 km/h 20.9 km/h 47 % 0 mm 107.0 W/m2 CLR
18:25 -0.8 °C -7.8 °C 34144.4 hPa ESE 20.9 km/h 20.9 km/h 47 % 0 mm 107.0 W/m2 CLR
18:30 -0.9 °C -7.9 °C 34144.4 hPa East 26.9 km/h 26.9 km/h 47 % 0 mm 114.0 W/m2 CLR
18:35 -0.9 °C -7.8 °C 34144.4 hPa ESE 20.9 km/h 20.9 km/h 47 % 0 mm 531.0 W/m2 CLR
18:40 -0.7 °C -7.7 °C 34130.9 hPa ESE 20.9 km/h 20.9 km/h 47 % 0 mm 496.0 W/m2 CLR
18:45 -0.7 °C -7.7 °C 34130.9 hPa ESE 15.6 km/h 15.6 km/h 47 % 0 mm 146.0 W/m2 CLR
18:50 -0.8 °C -7.8 °C 34130.9 hPa ESE 20.9 km/h 20.9 km/h 47 % 0 mm 163.0 W/m2 CLR
18:55 -0.8 °C -7.6 °C 34130.9 hPa East 20.9 km/h 20.9 km/h 48 % 0 mm 418.0 W/m2 CLR
19:00 -0.8 °C -7.8 °C 34130.9 hPa East 23.8 km/h 23.8 km/h 47 % 0 mm 142.0 W/m2 CLR
19:05 -0.8 °C -7.8 °C 34130.9 hPa ESE 15 km/h 15 km/h 47 % 0 mm 146.0 W/m2 CLR
19:10 -0.9 °C -7.8 °C 34130.9 hPa East 20.9 km/h 20.9 km/h 47 % 0 mm 183.0 W/m2 CLR
19:15 -0.9 °C -7.9 °C 34120.7 hPa ESE 15 km/h 15 km/h 47 % 0 mm 311.0 W/m2 CLR
19:20 -0.7 °C -8.5 °C 34120.7 hPa East 12.9 km/h 12.9 km/h 43 % 0 mm 90.0 W/m2 CLR
19:25 -0.6 °C -8.2 °C 34120.7 hPa ESE 28.5 km/h 28.5 km/h 44 % 0 mm 91.0 W/m2 CLR
19:30 -0.9 °C -8.3 °C 34120.7 hPa SE 35.7 km/h 35.7 km/h 45 % 0 mm 70.0 W/m2 CLR
19:35 -1 °C -8.2 °C 34120.7 hPa ESE 20.9 km/h 20.9 km/h 46 % 0 mm 67.0 W/m2 FEW
19:40 -1 °C -8.2 °C 34120.7 hPa East 23.8 km/h 23.8 km/h 46 % 0 mm 56.0 W/m2 FEW
19:45 -1.1 °C -8 °C 34120.7 hPa SE 9 km/h 9 km/h 47 % 0 mm 60.0 W/m2 FEW
19:50 -1.1 °C -8.1 °C 34120.7 hPa ESE 26.9 km/h 26.9 km/h 47 % 0 mm 54.0 W/m2 SCT
19:55 -1.2 °C -8.2 °C 34120.7 hPa ESE 23.8 km/h 23.8 km/h 47 % 0 mm 40.0 W/m2 SCT
20:00 -1.2 °C -8.2 °C 34120.7 hPa ESE 15 km/h 15 km/h 47 % 0 mm 30.0 W/m2 BKN
20:05 -1.3 °C -8.1 °C 34120.7 hPa SE 23.8 km/h 23.8 km/h 48 % 0 mm 25.0 W/m2 BKN
20:10 -1.4 °C -8 °C 34130.9 hPa ESE 15 km/h 15 km/h 49 % 0 mm 26.0 W/m2 BKN
20:15 -1.5 °C -8.1 °C 34130.9 hPa SE 20.9 km/h 20.9 km/h 49 % 0 mm 33.0 W/m2 BKN
20:20 -1.6 °C -8.2 °C 34120.7 hPa ESE 26.9 km/h 26.9 km/h 49 % 0 mm 60.0 W/m2 BKN
20:25 -1.7 °C -8.1 °C 34130.9 hPa SE 23.8 km/h 23.8 km/h 50 % 0 mm 74.0 W/m2 SCT
20:30 -1.8 °C -8.1 °C 34130.9 hPa ESE 20.9 km/h 20.9 km/h 50 % 0 mm 67.0 W/m2 FEW
20:35 -1.8 °C -8 °C 34130.9 hPa Calm     51 % 0 mm 47.0 W/m2 SCT
20:40 -1.9 °C -7.9 °C 34130.9 hPa East 17.9 km/h 17.9 km/h 52 % 0 mm 42.0 W/m2 BKN
20:45 -1.9 °C -7.9 °C 34130.9 hPa East 15.6 km/h 15.6 km/h 52 % 0 mm 49.0 W/m2 SCT
20:50 -2.1 °C -7.9 °C 34130.9 hPa East 20.9 km/h 20.9 km/h 53 % 0 mm 33.0 W/m2 BKN
20:55 -2.2 °C -7.8 °C 34130.9 hPa SE 26.9 km/h 26.9 km/h 54 % 0 mm 23.0 W/m2 BKN
21:00 -2.3 °C -7.9 °C 34130.9 hPa SE 23.3 km/h 23.3 km/h 54 % 0 mm 21.0 W/m2 BKN
21:05 -2.3 °C -7.8 °C 34130.9 hPa ESE 26.9 km/h 26.9 km/h 55 % 0 mm 18.0 W/m2 BKN
21:10 -2.4 °C -7.7 °C 34130.9 hPa SE 17.9 km/h 17.9 km/h 56 % 0 mm 14.0 W/m2 BKN
21:15 -2.5 °C -7.7 °C 34130.9 hPa ESE 15.6 km/h 15.6 km/h 57 % 0 mm 11.0 W/m2 BKN
21:20 -2.6 °C -7.7 °C 34130.9 hPa ENE 15 km/h 15 km/h 57 % 0 mm 5.0 W/m2 OVC
21:25 -2.7 °C -7.7 °C 34130.9 hPa Calm     58 % 0 mm 0.0 W/m2 OVC
21:30 -2.7 °C -7.6 °C 34130.9 hPa Calm     59 % 0 mm 0.0 W/m2 OVC
21:35 -2.9 °C -7.6 °C 34130.9 hPa East 9 km/h 9 km/h 60 % 0 mm 0.0 W/m2 OVC
21:40 -2.9 °C -7.4 °C 34144.4 hPa Calm     61 % 0 mm 0.0 W/m2 CLR
21:45 -3 °C -7.6 °C 34130.9 hPa ESE 17.9 km/h 17.9 km/h 61 % 0 mm 0.0 W/m2 CLR
21:50 -3.1 °C -7.4 °C 34130.9 hPa SE 26.9 km/h 26.9 km/h 62 % 0 mm 0.0 W/m2 CLR
21:55 -3.2 °C -7.6 °C 34144.4 hPa ESE 17.9 km/h 17.9 km/h 62 % 0 mm 0.0 W/m2 CLR
22:00 -3.2 °C -7.6 °C 34144.4 hPa East 9 km/h   62 % 0 mm 0.0 W/m2 CLR
22:05 -3.1 °C -7.6 °C 34144.4 hPa East 11.9 km/h 11.9 km/h 61 % 0 mm 0.0 W/m2 CLR
22:10 -3.2 °C -7.6 °C 34144.4 hPa ESE 11.9 km/h 11.9 km/h 62 % 0 mm 0.0 W/m2 CLR
22:15 -3.2 °C -7.6 °C 34144.4 hPa ESE 23.8 km/h 23.8 km/h 62 % 0 mm 0.0 W/m2 CLR
22:20 -3.2 °C -7.6 °C 34144.4 hPa SE 9 km/h 9 km/h 62 % 0 mm 0.0 W/m2 CLR
22:25 -3.2 °C -7.6 °C 34144.4 hPa SE 20.8 km/h 20.8 km/h 62 % 0 mm 0.0 W/m2 CLR
22:30 -3.2 °C -7.6 °C 34144.4 hPa SE 23.8 km/h 23.8 km/h 62 % 0 mm 0.0 W/m2 CLR
22:35 -3.3 °C -7.6 °C 34144.4 hPa SSE 15 km/h 15 km/h 62 % 0 mm 0.0 W/m2 CLR
22:40 -3.2 °C -7.7 °C 34144.4 hPa ESE 9 km/h 9 km/h 61 % 0 mm 0.0 W/m2 CLR
22:45 -3.2 °C -7.7 °C 34144.4 hPa East 15 km/h 15 km/h 61 % 0 mm 0.0 W/m2 CLR
22:50 -3.3 °C -7.7 °C 34154.6 hPa Calm     62 % 0 mm 0.0 W/m2 CLR
22:55 -3.4 °C -7.7 °C 34154.6 hPa Calm     62 % 0 mm 0.0 W/m2 CLR
23:00 -3.4 °C -7.6 °C 34154.6 hPa Calm     63 % 0 mm 0.0 W/m2 CLR
23:06 -3.5 °C -7.7 °C 34154.6 hPa Calm     63 % 0 mm 0.0 W/m2 CLR
23:11 -3.6 °C -7.6 °C 34154.6 hPa Calm     64 % 0 mm 0.0 W/m2 CLR
23:16 -3.6 °C -7.7 °C 34144.4 hPa Calm     64 % 0 mm 0.0 W/m2 CLR
23:21 -3.7 °C -7.6 °C 34144.4 hPa Calm     65 % 0 mm 0.0 W/m2 CLR
23:26 -3.8 °C -7.6 °C 34154.6 hPa ENE 3.1 km/h   66 % 0 mm 0.0 W/m2 CLR
23:31 -3.8 °C -7.6 °C 34154.6 hPa Calm     66 % 0 mm 0.0 W/m2 CLR
23:36 -3.8 °C -7.6 °C 34154.6 hPa ENE 5.1 km/h 5.1 km/h 66 % 0 mm 0.0 W/m2 CLR
23:41 -3.8 °C -7.6 °C 34154.6 hPa Calm     66 % 0 mm 0.0 W/m2 CLR
23:46 -3.9 °C -7.6 °C 34154.6 hPa Calm     67 % 0 mm 0.0 W/m2 CLR
23:51 -3.9 °C -7.6 °C 34154.6 hPa Calm     67 % 0 mm 0.0 W/m2 CLR
23:56 -3.9 °C -7.4 °C 34154.6 hPa Calm     68 % 0 mm 0.0 W/m2 CLR
Lo Temps de Massalio
Compliments of Weather Underground - 1.25 mb